Time;durP1;ratioP1;P1;durP2;ratioP2;P2;SDS_P1;SDS_P2;PMS_P1;PMS_P2;Temp;Humidity;BMP_temperature;BMP_pressure;BME280_temperature;BME280_humidity;BME280_pressure;Samples;Min_cycle;Max_cycle;Signal;HPM_P1;HPM_P2
2022/04/07 00:01:05;;;;;;;;;;;10.10;83.60;;;;;;5035739;28;19986;-71
2022/04/07 00:03:32;;;;;;;;;;;10.10;84.20;;;;;;5036811;28;19929;-71
2022/04/07 00:05:59;;;;;;;;;;;10.10;83.50;;;;;;5034392;28;20380;-71
2022/04/07 00:08:26;;;;;;;;;;;10.10;83.80;;;;;;5033910;28;19952;-70
2022/04/07 00:10:53;;;;;;;;;;;10.10;84.40;;;;;;5032225;28;19925;-71
2022/04/07 00:13:21;;;;;;;;;;;10.00;84.80;;;;;;5035963;28;19943;-71
2022/04/07 00:15:48;;;;;;;;;;;10.00;85.60;;;;;;5030333;28;20028;-71
2022/04/07 00:18:15;;;;;;;;;;;10.00;85.40;;;;;;5033173;28;19961;-71
2022/04/07 00:20:43;;;;;;;;;;;9.90;84.90;;;;;;5035839;28;20413;-71
2022/04/07 00:23:10;;;;;;;;;;;9.90;85.40;;;;;;5034062;28;19928;-71
2022/04/07 00:25:37;;;;;;;;;;;9.90;85.70;;;;;;5032786;28;20379;-71
2022/04/07 00:28:04;;;;;;;;;;;9.90;85.50;;;;;;5039556;28;19933;-71
2022/04/07 00:30:33;;;;;;;;;;;9.80;85.10;;;;;;5033181;28;19929;-71
2022/04/07 00:33:00;;;;;;;;;;;9.80;84.90;;;;;;5035232;28;20970;-71
2022/04/07 00:35:27;;;;;;;;;;;9.80;84.70;;;;;;5045016;28;19933;-71
2022/04/07 00:37:54;;;;;;;;;;;9.80;84.60;;;;;;5034714;28;19929;-71
2022/04/07 00:40:21;;;;;;;;;;;9.80;85.00;;;;;;5031832;28;19987;-71
2022/04/07 00:42:49;;;;;;;;;;;9.80;85.10;;;;;;5033427;28;19935;-71
2022/04/07 00:45:16;;;;;;;;;;;9.80;85.80;;;;;;5048556;28;19929;-71
2022/04/07 00:47:44;;;;;;;;;;;9.70;86.00;;;;;;5041060;28;20364;-71
2022/04/07 00:50:12;;;;;;;;;;;9.70;86.20;;;;;;5033692;28;19936;-71
2022/04/07 00:52:40;;;;;;;;;;;9.70;86.40;;;;;;5035789;28;20411;-71
2022/04/07 00:55:09;;;;;;;;;;;9.60;86.20;;;;;;5022243;28;19928;-70
2022/04/07 00:57:37;;;;;;;;;;;9.60;86.30;;;;;;5035498;28;19933;-72
2022/04/07 01:00:05;;;;;;;;;;;9.60;86.50;;;;;;5032925;28;19982;-72
2022/04/07 01:02:32;;;;;;;;;;;9.60;86.40;;;;;;5018269;28;19924;-72
2022/04/07 01:04:59;;;;;;;;;;;9.30;87.40;;;;;;5033361;28;20472;-70
2022/04/07 01:07:26;;;;;;;;;;;9.30;87.30;;;;;;5033708;28;19956;-72
2022/04/07 01:09:53;;;;;;;;;;;9.30;87.10;;;;;;5032937;28;19936;-71
2022/04/07 01:12:20;;;;;;;;;;;9.30;87.20;;;;;;5033679;28;20299;-72
2022/04/07 01:15:00;;;;;;;;;;;9.30;86.90;;;;;;5034800;28;20018;-70
2022/04/07 01:17:27;;;;;;;;;;;9.40;87.00;;;;;;5035039;28;20461;-70
2022/04/07 01:19:54;;;;;;;;;;;9.50;86.50;;;;;;5047429;28;19932;-72
2022/04/07 01:22:21;;;;;;;;;;;9.50;86.40;;;;;;5034758;28;19929;-72
2022/04/07 01:24:48;;;;;;;;;;;9.50;86.80;;;;;;5028442;28;19933;-71
2022/04/07 01:27:17;;;;;;;;;;;9.40;86.50;;;;;;5031910;28;19983;-70
2022/04/07 01:29:44;;;;;;;;;;;9.50;86.20;;;;;;5035772;28;20368;-70
2022/04/07 01:32:14;;;;;;;;;;;9.50;86.90;;;;;;5031556;28;19929;-70
2022/04/07 01:34:42;;;;;;;;;;;9.50;86.50;;;;;;5032795;28;19935;-71
2022/04/07 01:37:10;;;;;;;;;;;9.50;86.10;;;;;;5033121;28;20004;-71
2022/04/07 01:39:38;;;;;;;;;;;9.30;86.20;;;;;;5032351;28;20551;-71
2022/04/07 01:42:07;;;;;;;;;;;9.30;86.60;;;;;;5033171;28;19925;-71
2022/04/07 01:44:36;;;;;;;;;;;9.40;86.40;;;;;;5029695;28;19936;-71
2022/04/07 01:47:03;;;;;;;;;;;9.40;86.20;;;;;;5020936;28;19972;-71
2022/04/07 01:49:33;;;;;;;;;;;9.50;86.30;;;;;;5033746;28;19933;-71
2022/04/07 01:52:02;;;;;;;;;;;9.50;85.80;;;;;;5032007;28;19932;-72
2022/04/07 01:54:29;;;;;;;;;;;9.50;85.30;;;;;;5029423;28;20540;-71
2022/04/07 01:56:56;;;;;;;;;;;9.50;85.10;;;;;;5033710;28;20489;-71
2022/04/07 01:59:24;;;;;;;;;;;9.60;85.30;;;;;;5033702;28;19925;-71
2022/04/07 02:01:51;;;;;;;;;;;9.60;85.30;;;;;;5031547;28;20384;-71
2022/04/07 02:04:18;;;;;;;;;;;9.60;85.10;;;;;;5034299;28;19925;-71
2022/04/07 02:06:45;;;;;;;;;;;9.60;85.20;;;;;;5036505;28;19947;-71
2022/04/07 02:09:11;;;;;;;;;;;9.70;85.30;;;;;;5032022;28;20129;-71
2022/04/07 02:11:38;;;;;;;;;;;9.70;84.80;;;;;;5028556;28;20010;-71
2022/04/07 02:14:05;;;;;;;;;;;9.70;84.60;;;;;;5033360;28;19933;-71
2022/04/07 02:16:32;;;;;;;;;;;9.70;85.40;;;;;;5033423;28;20342;-71
2022/04/07 02:18:59;;;;;;;;;;;9.80;86.40;;;;;;5031716;28;20028;-71
2022/04/07 02:21:26;;;;;;;;;;;9.80;86.10;;;;;;5032857;28;20396;-71
2022/04/07 02:23:53;;;;;;;;;;;9.80;86.10;;;;;;5033869;28;19960;-71
2022/04/07 02:26:20;;;;;;;;;;;9.80;86.30;;;;;;5050845;28;20893;-71
2022/04/07 02:28:47;;;;;;;;;;;9.70;86.40;;;;;;5036865;28;19979;-72
2022/04/07 02:31:14;;;;;;;;;;;9.70;86.00;;;;;;5034327;28;19936;-71
2022/04/07 02:33:40;;;;;;;;;;;9.70;86.20;;;;;;5033904;28;19978;-71
2022/04/07 02:36:08;;;;;;;;;;;9.60;85.90;;;;;;5022693;28;19979;-71
2022/04/07 02:38:36;;;;;;;;;;;9.60;85.80;;;;;;5052224;28;20350;-71
2022/04/07 02:41:03;;;;;;;;;;;9.60;85.40;;;;;;5032691;28;19965;-71
2022/04/07 02:43:30;;;;;;;;;;;9.60;85.40;;;;;;5037098;28;19941;-71
2022/04/07 02:45:57;;;;;;;;;;;9.60;86.40;;;;;;5052563;28;20466;-71
2022/04/07 02:48:24;;;;;;;;;;;9.60;85.40;;;;;;5037065;28;20370;-71
2022/04/07 02:50:51;;;;;;;;;;;9.60;85.70;;;;;;5036490;28;19929;-71
2022/04/07 02:53:18;;;;;;;;;;;9.70;85.70;;;;;;5049003;28;19932;-71
2022/04/07 02:55:44;;;;;;;;;;;9.70;85.90;;;;;;5033199;28;19933;-71
2022/04/07 02:58:11;;;;;;;;;;;9.70;86.10;;;;;;5034531;28;19975;-72
2022/04/07 03:00:39;;;;;;;;;;;9.70;86.20;;;;;;5027422;28;20338;-71
2022/04/07 03:03:06;;;;;;;;;;;9.70;86.70;;;;;;5031675;28;19939;-72
2022/04/07 03:05:33;;;;;;;;;;;9.60;86.50;;;;;;5033741;28;19924;-71
2022/04/07 03:08:00;;;;;;;;;;;9.60;86.60;;;;;;5033613;28;20418;-71
2022/04/07 03:10:27;;;;;;;;;;;9.60;87.10;;;;;;5035458;28;19940;-72
2022/04/07 03:12:54;;;;;;;;;;;9.60;87.20;;;;;;5031688;28;19926;-71
2022/04/07 03:15:21;;;;;;;;;;;9.50;87.60;;;;;;5035102;28;19975;-71
2022/04/07 03:17:48;;;;;;;;;;;9.60;87.70;;;;;;5030211;28;19940;-71
2022/04/07 03:20:15;;;;;;;;;;;9.60;88.10;;;;;;5033193;28;19962;-71
2022/04/07 03:22:43;;;;;;;;;;;9.50;88.10;;;;;;5038431;28;19978;-71
2022/04/07 03:25:10;;;;;;;;;;;9.50;88.40;;;;;;5039821;28;21194;-71
2022/04/07 03:27:37;;;;;;;;;;;9.50;88.50;;;;;;5039040;28;19933;-71
2022/04/07 03:30:04;;;;;;;;;;;9.50;89.00;;;;;;5038933;28;19933;-72
2022/04/07 03:32:31;;;;;;;;;;;9.40;89.10;;;;;;5037471;28;20023;-70
2022/04/07 03:34:58;;;;;;;;;;;9.50;89.50;;;;;;5042812;28;19968;-71
2022/04/07 03:37:25;;;;;;;;;;;9.50;89.60;;;;;;5040995;28;19937;-71
2022/04/07 03:39:52;;;;;;;;;;;9.40;89.60;;;;;;5038422;28;19955;-71
2022/04/07 03:42:19;;;;;;;;;;;9.40;89.90;;;;;;5036695;28;19932;-71
2022/04/07 03:44:45;;;;;;;;;;;9.50;90.00;;;;;;5038763;28;19959;-71
2022/04/07 03:47:13;;;;;;;;;;;9.50;90.10;;;;;;5026003;28;19925;-72
2022/04/07 03:49:40;;;;;;;;;;;9.50;90.00;;;;;;5041670;28;19978;-71
2022/04/07 03:52:07;;;;;;;;;;;9.40;90.20;;;;;;5036040;28;19933;-72
2022/04/07 03:54:34;;;;;;;;;;;9.30;90.30;;;;;;5038678;28;19928;-71
2022/04/07 03:57:01;;;;;;;;;;;9.30;90.40;;;;;;5040106;28;19925;-71
2022/04/07 03:59:29;;;;;;;;;;;9.30;90.40;;;;;;5037173;28;19932;-72
2022/04/07 04:01:56;;;;;;;;;;;9.30;90.40;;;;;;5039799;28;20285;-72
2022/04/07 04:04:23;;;;;;;;;;;9.30;90.50;;;;;;5036460;28;19952;-71
2022/04/07 04:06:50;;;;;;;;;;;9.30;90.60;;;;;;5039573;28;19934;-71
2022/04/07 04:09:17;;;;;;;;;;;9.30;90.70;;;;;;5038645;28;19929;-71
2022/04/07 04:11:44;;;;;;;;;;;9.30;90.70;;;;;;5036554;28;19952;-71
2022/04/07 04:14:11;;;;;;;;;;;9.40;90.70;;;;;;5038827;28;19936;-71
2022/04/07 04:16:38;;;;;;;;;;;9.40;90.60;;;;;;5035556;28;19928;-72
2022/04/07 04:19:05;;;;;;;;;;;9.30;90.80;;;;;;5033949;28;19963;-72
2022/04/07 04:21:32;;;;;;;;;;;9.40;90.80;;;;;;5034267;28;19932;-72
2022/04/07 04:23:59;;;;;;;;;;;9.30;91.00;;;;;;5036366;28;19932;-71
2022/04/07 04:26:26;;;;;;;;;;;9.30;91.10;;;;;;5036875;28;20201;-71
2022/04/07 04:28:53;;;;;;;;;;;9.30;91.00;;;;;;5036279;28;19932;-72
2022/04/07 04:31:24;;;;;;;;;;;9.30;91.40;;;;;;5040903;28;20279;-72
2022/04/07 04:33:51;;;;;;;;;;;9.20;91.20;;;;;;5039439;28;19936;-71
2022/04/07 04:36:18;;;;;;;;;;;9.30;91.60;;;;;;5037759;28;19932;-71
2022/04/07 04:38:45;;;;;;;;;;;9.40;91.80;;;;;;5041494;28;22125;-72
2022/04/07 04:41:12;;;;;;;;;;;9.40;91.80;;;;;;5037192;28;20394;-71
2022/04/07 04:43:39;;;;;;;;;;;9.40;91.80;;;;;;5055003;28;19925;-72
2022/04/07 04:46:07;;;;;;;;;;;9.30;92.10;;;;;;5019317;28;19935;-72
2022/04/07 04:48:34;;;;;;;;;;;9.40;92.10;;;;;;5019596;28;20354;-72
2022/04/07 04:51:02;;;;;;;;;;;9.40;92.20;;;;;;5039447;28;20399;-72
2022/04/07 04:53:29;;;;;;;;;;;9.40;92.00;;;;;;5040120;28;19928;-72
2022/04/07 04:55:56;;;;;;;;;;;9.40;92.20;;;;;;5037040;28;19936;-72
2022/04/07 04:58:23;;;;;;;;;;;9.40;92.10;;;;;;5035111;28;19925;-72
2022/04/07 05:00:50;;;;;;;;;;;9.50;92.00;;;;;;5018219;28;20113;-72
2022/04/07 05:03:17;;;;;;;;;;;9.60;91.90;;;;;;4984051;28;20073;-71
2022/04/07 05:05:44;;;;;;;;;;;9.60;91.90;;;;;;4983254;28;20070;-72
2022/04/07 05:08:11;;;;;;;;;;;9.60;91.80;;;;;;4971174;28;19933;-72
2022/04/07 05:10:40;;;;;;;;;;;9.60;91.90;;;;;;4995338;28;19975;-71
2022/04/07 05:13:07;;;;;;;;;;;9.60;92.00;;;;;;5001243;28;20696;-72
2022/04/07 05:15:36;;;;;;;;;;;9.60;92.10;;;;;;4990290;28;19933;-72
2022/04/07 05:18:03;;;;;;;;;;;9.60;92.10;;;;;;4988377;28;19940;-71
2022/04/07 05:20:30;;;;;;;;;;;9.60;92.40;;;;;;4990991;28;19985;-72
2022/04/07 05:22:57;;;;;;;;;;;9.60;92.30;;;;;;4994558;28;19937;-72
2022/04/07 05:25:24;;;;;;;;;;;9.60;92.30;;;;;;4992037;28;20019;-72
2022/04/07 05:27:51;;;;;;;;;;;9.60;92.30;;;;;;4991837;28;19979;-72
2022/04/07 05:30:18;;;;;;;;;;;9.60;92.60;;;;;;4993725;28;19940;-72
2022/04/07 05:32:45;;;;;;;;;;;9.70;92.20;;;;;;4994292;28;19933;-73
2022/04/07 05:35:13;;;;;;;;;;;9.70;92.00;;;;;;4993668;28;20022;-72
2022/04/07 05:37:40;;;;;;;;;;;9.70;92.00;;;;;;4995082;28;20795;-72
2022/04/07 05:40:11;;;;;;;;;;;9.70;92.00;;;;;;4992969;28;19937;-71
2022/04/07 05:42:38;;;;;;;;;;;9.70;92.00;;;;;;4992824;28;22330;-71
2022/04/07 05:45:05;;;;;;;;;;;9.80;92.00;;;;;;4994376;28;20446;-71
2022/04/07 05:47:39;;;;;;;;;;;9.80;92.10;;;;;;4994248;28;19933;-71
2022/04/07 05:50:06;;;;;;;;;;;9.80;91.90;;;;;;5009951;28;19937;-71
2022/04/07 05:52:33;;;;;;;;;;;9.80;91.90;;;;;;4985502;28;20557;-72
2022/04/07 05:55:00;;;;;;;;;;;9.80;91.70;;;;;;5002784;28;20645;-72
2022/04/07 05:57:30;;;;;;;;;;;9.90;91.50;;;;;;4985584;28;22311;-71
2022/04/07 06:00:11;;;;;;;;;;;9.90;91.40;;;;;;5003370;28;20197;-72
2022/04/07 06:02:42;;;;;;;;;;;10.00;91.50;;;;;;4979637;28;20366;-72
2022/04/07 06:05:09;;;;;;;;;;;10.00;91.30;;;;;;4999873;28;19990;-71
2022/04/07 06:07:37;;;;;;;;;;;10.10;91.30;;;;;;4984895;28;19932;-72
2022/04/07 06:10:05;;;;;;;;;;;10.20;91.00;;;;;;4989995;28;20047;-71
2022/04/07 06:12:32;;;;;;;;;;;10.20;91.20;;;;;;4991780;28;19933;-71
2022/04/07 06:14:59;;;;;;;;;;;10.20;91.40;;;;;;4990212;28;19933;-71
2022/04/07 06:17:36;;;;;;;;;;;10.30;91.10;;;;;;4985516;28;19969;-71
2022/04/07 06:20:03;;;;;;;;;;;10.40;91.10;;;;;;4987796;28;19933;-71
2022/04/07 06:22:30;;;;;;;;;;;10.40;90.40;;;;;;4987502;28;20071;-71
2022/04/07 06:24:57;;;;;;;;;;;10.40;90.80;;;;;;4979719;28;20067;-71
2022/04/07 06:27:32;;;;;;;;;;;10.50;90.80;;;;;;4990667;28;20022;-72
2022/04/07 06:29:59;;;;;;;;;;;10.50;90.20;;;;;;4976468;28;19933;-71
2022/04/07 06:32:26;;;;;;;;;;;10.50;90.40;;;;;;4992797;28;19933;-71
2022/04/07 06:34:52;;;;;;;;;;;10.50;90.40;;;;;;4994655;28;19933;-71
2022/04/07 06:37:19;;;;;;;;;;;10.50;90.10;;;;;;4993381;28;19947;-71
2022/04/07 06:39:46;;;;;;;;;;;10.60;89.70;;;;;;4992671;28;20340;-72
2022/04/07 06:42:13;;;;;;;;;;;10.70;89.40;;;;;;4992145;28;19933;-72
2022/04/07 06:44:40;;;;;;;;;;;10.70;89.30;;;;;;5007526;28;19940;-70
2022/04/07 06:47:07;;;;;;;;;;;10.80;89.00;;;;;;4995146;28;20484;-71
2022/04/07 06:49:34;;;;;;;;;;;10.90;88.20;;;;;;5006611;28;20134;-72
2022/04/07 06:52:01;;;;;;;;;;;10.90;87.80;;;;;;4991256;28;19933;-72
2022/04/07 06:54:28;;;;;;;;;;;10.90;87.50;;;;;;4992604;28;20035;-72
2022/04/07 06:56:55;;;;;;;;;;;11.00;89.10;;;;;;4996057;28;20129;-73
2022/04/07 06:59:22;;;;;;;;;;;11.00;87.60;;;;;;4999457;28;19934;-71
2022/04/07 07:01:49;;;;;;;;;;;11.00;87.50;;;;;;4996734;28;20776;-71
2022/04/07 07:04:16;;;;;;;;;;;11.10;87.70;;;;;;5002215;28;20141;-73
2022/04/07 07:06:43;;;;;;;;;;;11.10;86.70;;;;;;4996800;28;19978;-72
2022/04/07 07:09:10;;;;;;;;;;;11.10;86.80;;;;;;5011814;28;20003;-72
2022/04/07 07:11:37;;;;;;;;;;;11.10;86.10;;;;;;4996323;28;20012;-72
2022/04/07 07:14:04;;;;;;;;;;;11.10;86.40;;;;;;4994963;28;20023;-72
2022/04/07 07:16:31;;;;;;;;;;;11.20;87.20;;;;;;4996623;28;19933;-72
2022/04/07 07:18:58;;;;;;;;;;;11.20;86.50;;;;;;4996704;28;22486;-72
2022/04/07 07:21:25;;;;;;;;;;;11.20;86.20;;;;;;4993267;28;19933;-72
2022/04/07 07:23:52;;;;;;;;;;;11.30;85.80;;;;;;4997044;28;20015;-72
2022/04/07 07:26:19;;;;;;;;;;;11.40;86.10;;;;;;4995064;28;19937;-72
2022/04/07 07:28:46;;;;;;;;;;;11.40;86.00;;;;;;4993778;28;19940;-72
2022/04/07 07:31:13;;;;;;;;;;;11.50;85.90;;;;;;4993087;28;20848;-72
2022/04/07 07:33:39;;;;;;;;;;;11.60;84.90;;;;;;4994295;28;19933;-71
2022/04/07 07:36:06;;;;;;;;;;;11.70;83.60;;;;;;4993302;28;20019;-71
2022/04/07 07:38:33;;;;;;;;;;;11.70;83.50;;;;;;5000525;28;19932;-72
2022/04/07 07:41:01;;;;;;;;;;;11.80;84.30;;;;;;4994127;28;19933;-73
2022/04/07 07:43:27;;;;;;;;;;;11.80;83.70;;;;;;4988458;28;19968;-73
2022/04/07 07:45:54;;;;;;;;;;;11.80;82.40;;;;;;4991442;28;19933;-71
2022/04/07 07:48:28;;;;;;;;;;;12.00;82.50;;;;;;4991312;28;19937;-72
2022/04/07 07:50:56;;;;;;;;;;;12.10;82.00;;;;;;4991497;28;19933;-72
2022/04/07 07:53:23;;;;;;;;;;;12.10;82.60;;;;;;4994708;28;19933;-71
2022/04/07 07:55:50;;;;;;;;;;;12.20;82.00;;;;;;4986358;28;20010;-72
2022/04/07 07:58:18;;;;;;;;;;;12.30;81.10;;;;;;4994100;28;19972;-72
2022/04/07 08:00:45;;;;;;;;;;;12.30;81.00;;;;;;4994301;28;19947;-72
2022/04/07 08:03:12;;;;;;;;;;;12.40;80.80;;;;;;4991161;28;19933;-72
2022/04/07 08:05:39;;;;;;;;;;;12.40;80.70;;;;;;4992405;28;20013;-72
2022/04/07 08:08:06;;;;;;;;;;;12.50;80.90;;;;;;4993448;28;19947;-73
2022/04/07 08:10:33;;;;;;;;;;;12.60;80.30;;;;;;4981062;28;19933;-72
2022/04/07 08:13:00;;;;;;;;;;;12.50;79.80;;;;;;4993566;28;19933;-72
2022/04/07 08:15:27;;;;;;;;;;;12.60;80.30;;;;;;4998811;28;20688;-72
2022/04/07 08:17:54;;;;;;;;;;;12.60;80.40;;;;;;4991349;28;19971;-71
2022/04/07 08:20:21;;;;;;;;;;;12.60;80.60;;;;;;4994766;28;20020;-72
2022/04/07 08:22:49;;;;;;;;;;;12.60;80.30;;;;;;4992473;28;19933;-72
2022/04/07 08:25:16;;;;;;;;;;;12.60;80.20;;;;;;4992365;28;19982;-71
2022/04/07 08:27:45;;;;;;;;;;;12.70;80.40;;;;;;4993888;28;19933;-72
2022/04/07 08:30:12;;;;;;;;;;;12.80;80.60;;;;;;4994454;28;20866;-71
2022/04/07 08:32:39;;;;;;;;;;;12.90;80.30;;;;;;4986125;28;19933;-72
2022/04/07 08:35:07;;;;;;;;;;;12.90;78.90;;;;;;4992268;28;20039;-73
2022/04/07 08:37:35;;;;;;;;;;;12.90;79.00;;;;;;4979292;28;19933;-72
2022/04/07 08:40:06;;;;;;;;;;;13.00;78.70;;;;;;4991257;28;19933;-72
2022/04/07 08:42:36;;;;;;;;;;;13.00;78.20;;;;;;4990679;28;20044;-71
2022/04/07 08:45:04;;;;;;;;;;;13.00;79.00;;;;;;4997582;28;22286;-72
2022/04/07 08:47:33;;;;;;;;;;;13.00;78.20;;;;;;4991314;28;19944;-72
2022/04/07 08:50:01;;;;;;;;;;;13.10;78.10;;;;;;4991109;28;19940;-72
2022/04/07 08:52:28;;;;;;;;;;;13.00;77.50;;;;;;4990845;28;19975;-72
2022/04/07 08:54:55;;;;;;;;;;;13.30;77.90;;;;;;4992905;28;19933;-72
2022/04/07 08:57:23;;;;;;;;;;;13.40;76.90;;;;;;4994224;28;20075;-72
2022/04/07 08:59:50;;;;;;;;;;;13.40;76.30;;;;;;4994821;28;20587;-72
2022/04/07 09:02:17;;;;;;;;;;;13.40;76.30;;;;;;4989605;28;19940;-72
2022/04/07 09:04:46;;;;;;;;;;;13.50;76.80;;;;;;4991865;28;19940;-72
2022/04/07 09:07:14;;;;;;;;;;;13.30;76.10;;;;;;4987643;28;20003;-72
2022/04/07 09:09:41;;;;;;;;;;;13.60;76.60;;;;;;4973233;28;19940;-72
2022/04/07 09:12:08;;;;;;;;;;;13.70;75.40;;;;;;4987517;28;19933;-72
2022/04/07 09:14:37;;;;;;;;;;;13.80;76.60;;;;;;4991309;28;20748;-72
2022/04/07 09:17:04;;;;;;;;;;;14.00;74.90;;;;;;4992707;28;20123;-71
2022/04/07 09:19:31;;;;;;;;;;;14.30;74.60;;;;;;4988793;28;20897;-71
2022/04/07 09:22:06;;;;;;;;;;;14.40;74.10;;;;;;4989325;28;20930;-71
2022/04/07 09:24:33;;;;;;;;;;;14.60;74.10;;;;;;4987872;28;23319;-71
2022/04/07 09:27:02;;;;;;;;;;;14.40;72.00;;;;;;4993901;28;19933;-72
2022/04/07 09:29:45;;;;;;;;;;;14.40;72.80;;;;;;4997541;28;20455;-72
2022/04/07 09:32:22;;;;;;;;;;;14.40;72.80;;;;;;4989827;28;20070;-71
2022/04/07 09:34:56;;;;;;;;;;;14.60;72.20;;;;;;4991302;28;22460;-72
2022/04/07 09:37:24;;;;;;;;;;;14.70;72.50;;;;;;5006980;28;23646;-72
2022/04/07 09:40:12;;;;;;;;;;;14.60;71.90;;;;;;4989951;28;19983;-72
2022/04/07 09:42:42;;;;;;;;;;;14.60;71.70;;;;;;4996169;28;19932;-72
2022/04/07 09:45:13;;;;;;;;;;;14.60;70.80;;;;;;4986131;28;19937;-72
2022/04/07 09:47:40;;;;;;;;;;;14.70;70.20;;;;;;4987968;28;19933;-72
2022/04/07 09:50:29;;;;;;;;;;;14.60;69.40;;;;;;4987453;28;19933;-72
2022/04/07 09:52:56;;;;;;;;;;;14.70;70.20;;;;;;4989347;28;19940;-72
2022/04/07 09:55:28;;;;;;;;;;;14.90;69.10;;;;;;4973209;28;20012;-72
2022/04/07 09:57:55;;;;;;;;;;;15.00;69.80;;;;;;4993981;28;19932;-71
2022/04/07 10:00:23;;;;;;;;;;;15.00;69.60;;;;;;4987597;28;19991;-72
2022/04/07 10:02:50;;;;;;;;;;;15.00;68.90;;;;;;5005818;28;20915;-72
2022/04/07 10:05:17;;;;;;;;;;;15.00;69.40;;;;;;4979914;28;19941;-72
2022/04/07 10:07:48;;;;;;;;;;;15.10;68.60;;;;;;4990634;28;20918;-72
2022/04/07 10:10:17;;;;;;;;;;;15.40;69.60;;;;;;4991952;28;19933;-72
2022/04/07 10:12:45;;;;;;;;;;;15.60;67.20;;;;;;4990948;28;19960;-72
2022/04/07 10:15:13;;;;;;;;;;;15.70;67.50;;;;;;4986764;28;19939;-72
2022/04/07 10:17:40;;;;;;;;;;;15.70;68.00;;;;;;4990715;28;19932;-72
2022/04/07 10:20:09;;;;;;;;;;;15.50;67.90;;;;;;5001711;28;20059;-72
2022/04/07 10:22:39;;;;;;;;;;;15.30;68.80;;;;;;4991420;28;19932;-73
2022/04/07 10:25:06;;;;;;;;;;;15.10;68.80;;;;;;4991332;28;19937;-72
2022/04/07 10:27:35;;;;;;;;;;;15.30;68.90;;;;;;4988083;28;19933;-73
2022/04/07 10:30:02;;;;;;;;;;;15.70;68.20;;;;;;4992398;28;20703;-72
2022/04/07 10:32:36;;;;;;;;;;;16.10;67.50;;;;;;4991070;28;19933;-74
2022/04/07 10:35:03;;;;;;;;;;;16.20;66.50;;;;;;4988652;28;19940;-71
2022/04/07 10:37:41;;;;;;;;;;;15.90;66.50;;;;;;4996353;28;20022;-72
2022/04/07 10:40:44;;;;;;;;;;;15.70;67.50;;;;;;4992053;28;22352;-71
2022/04/07 10:43:21;;;;;;;;;;;15.50;67.80;;;;;;4984306;28;19933;-71
2022/04/07 10:45:49;;;;;;;;;;;15.50;67.50;;;;;;4995035;28;19933;-71
2022/04/07 10:48:21;;;;;;;;;;;15.50;67.30;;;;;;4982812;28;19933;-72
2022/04/07 10:50:55;;;;;;;;;;;15.40;67.50;;;;;;4994251;28;20400;-72
2022/04/07 10:53:24;;;;;;;;;;;15.70;68.30;;;;;;4992192;28;20560;-72
2022/04/07 10:55:55;;;;;;;;;;;15.70;67.70;;;;;;4994439;28;19932;-72
2022/04/07 10:58:37;;;;;;;;;;;15.80;67.70;;;;;;4997737;28;20603;-72
2022/04/07 11:01:04;;;;;;;;;;;15.70;67.30;;;;;;4997129;28;19933;-72
2022/04/07 11:03:32;;;;;;;;;;;15.50;67.90;;;;;;4994514;28;20086;-72
2022/04/07 11:06:10;;;;;;;;;;;15.60;68.20;;;;;;4990154;28;20090;-72
2022/04/07 11:08:37;;;;;;;;;;;15.70;68.50;;;;;;4989982;28;19933;-72
2022/04/07 11:11:04;;;;;;;;;;;16.10;67.50;;;;;;4989976;28;19933;-72
2022/04/07 11:13:46;;;;;;;;;;;16.40;64.70;;;;;;5010045;28;19937;-71
2022/04/07 11:16:35;;;;;;;;;;;16.60;65.40;;;;;;4994896;28;19933;-72
2022/04/07 11:19:20;;;;;;;;;;;16.40;65.70;;;;;;4994556;28;19933;-72
2022/04/07 11:21:51;;;;;;;;;;;16.40;66.00;;;;;;4996099;28;19936;-72
2022/04/07 11:24:28;;;;;;;;;;;16.40;66.40;;;;;;4978003;28;20018;-72
2022/04/07 11:26:54;;;;;;;;;;;16.50;65.70;;;;;;4993006;28;22144;-71
2022/04/07 11:29:32;;;;;;;;;;;16.30;65.70;;;;;;4995770;28;19975;-70
2022/04/07 11:32:09;;;;;;;;;;;16.30;65.40;;;;;;4995915;28;20729;-71
2022/04/07 11:34:36;;;;;;;;;;;16.40;66.90;;;;;;4995072;28;19932;-72
2022/04/07 11:37:07;;;;;;;;;;;16.80;64.90;;;;;;4995063;28;19976;-72
2022/04/07 11:39:37;;;;;;;;;;;16.80;65.60;;;;;;4993927;28;19968;-71
2022/04/07 11:42:07;;;;;;;;;;;16.90;65.20;;;;;;4993612;28;19933;-71
2022/04/07 11:44:34;;;;;;;;;;;16.80;64.50;;;;;;4994524;28;19940;-72
2022/04/07 11:47:02;;;;;;;;;;;16.90;64.40;;;;;;4983665;28;19933;-72
2022/04/07 11:49:29;;;;;;;;;;;16.80;64.60;;;;;;4994593;28;19937;-71
2022/04/07 11:51:56;;;;;;;;;;;16.80;64.80;;;;;;4989044;28;22351;-70
2022/04/07 11:54:24;;;;;;;;;;;16.80;65.80;;;;;;4991098;28;20014;-72
2022/04/07 11:56:51;;;;;;;;;;;16.80;64.70;;;;;;4993709;28;20583;-71
2022/04/07 11:59:20;;;;;;;;;;;16.80;64.90;;;;;;4995245;28;19984;-73
2022/04/07 12:01:47;;;;;;;;;;;16.90;66.10;;;;;;4996000;28;22384;-72
2022/04/07 12:04:14;;;;;;;;;;;17.20;65.70;;;;;;5005900;28;19968;-72
2022/04/07 12:06:44;;;;;;;;;;;17.40;65.70;;;;;;4992815;28;19940;-72
2022/04/07 12:09:13;;;;;;;;;;;17.50;63.90;;;;;;4982609;28;20051;-72
2022/04/07 12:11:41;;;;;;;;;;;17.60;63.70;;;;;;4993875;28;19937;-72
2022/04/07 12:14:09;;;;;;;;;;;17.70;63.20;;;;;;4994934;28;19963;-72
2022/04/07 12:16:42;;;;;;;;;;;18.00;64.90;;;;;;4992663;28;20217;-71
2022/04/07 12:19:09;;;;;;;;;;;18.00;62.40;;;;;;4985404;28;19939;-73
2022/04/07 12:21:51;;;;;;;;;;;17.80;63.70;;;;;;4993583;28;20165;-72
2022/04/07 12:24:18;;;;;;;;;;;17.60;64.10;;;;;;4991560;28;19976;-72
2022/04/07 12:26:46;;;;;;;;;;;17.50;61.80;;;;;;5008836;28;19933;-72
2022/04/07 12:29:18;;;;;;;;;;;17.40;61.90;;;;;;4991421;28;19933;-72
2022/04/07 12:31:45;;;;;;;;;;;17.70;62.80;;;;;;4994891;28;19934;-72
2022/04/07 12:34:19;;;;;;;;;;;18.00;62.70;;;;;;4993825;28;19971;-71
2022/04/07 12:36:46;;;;;;;;;;;18.20;62.50;;;;;;4992493;28;20654;-72
2022/04/07 12:39:15;;;;;;;;;;;18.20;60.20;;;;;;4983362;28;22252;-72
2022/04/07 12:41:43;;;;;;;;;;;18.00;60.10;;;;;;4999735;28;19932;-71
2022/04/07 12:44:16;;;;;;;;;;;18.00;62.70;;;;;;4994826;28;19941;-70
2022/04/07 12:46:43;;;;;;;;;;;18.00;61.30;;;;;;4999965;28;22354;-71
2022/04/07 12:49:10;;;;;;;;;;;18.00;61.00;;;;;;4993793;28;19978;-71
2022/04/07 12:51:38;;;;;;;;;;;17.90;63.30;;;;;;4993270;28;20303;-71
2022/04/07 12:54:06;;;;;;;;;;;18.00;61.30;;;;;;4993719;28;19932;-72
2022/04/07 12:56:35;;;;;;;;;;;18.00;61.50;;;;;;4993325;28;19933;-72
2022/04/07 12:59:13;;;;;;;;;;;17.80;60.70;;;;;;4992950;28;21076;-72
2022/04/07 13:01:40;;;;;;;;;;;17.80;62.20;;;;;;4992949;28;19937;-72
2022/04/07 13:04:10;;;;;;;;;;;18.00;61.10;;;;;;4996012;28;20022;-72
2022/04/07 13:06:37;;;;;;;;;;;17.90;60.40;;;;;;4993255;28;19940;-71
2022/04/07 13:09:05;;;;;;;;;;;18.10;61.90;;;;;;5009308;28;20007;-72
2022/04/07 13:11:36;;;;;;;;;;;18.20;60.60;;;;;;4993265;28;20709;-72
2022/04/07 13:14:04;;;;;;;;;;;18.10;59.50;;;;;;4992470;28;19940;-71
2022/04/07 13:16:32;;;;;;;;;;;18.30;59.50;;;;;;4974638;28;19940;-71
2022/04/07 13:18:59;;;;;;;;;;;18.50;61.20;;;;;;4975632;28;20719;-72
2022/04/07 13:21:27;;;;;;;;;;;18.70;61.30;;;;;;5011685;28;19983;-72
2022/04/07 13:23:54;;;;;;;;;;;18.60;59.50;;;;;;4994139;28;19940;-72
2022/04/07 13:26:21;;;;;;;;;;;18.50;61.50;;;;;;4993602;28;19989;-71
2022/04/07 13:28:49;;;;;;;;;;;18.60;60.40;;;;;;4990691;28;20692;-71
2022/04/07 13:31:17;;;;;;;;;;;18.80;60.40;;;;;;4993267;28;20016;-73
2022/04/07 13:33:44;;;;;;;;;;;18.80;59.70;;;;;;4983088;28;20769;-71
2022/04/07 13:36:11;;;;;;;;;;;18.80;59.50;;;;;;4989071;28;20177;-72
2022/04/07 13:38:38;;;;;;;;;;;18.60;60.30;;;;;;4991902;28;20727;-71
2022/04/07 13:41:05;;;;;;;;;;;18.70;60.00;;;;;;4986613;28;20904;-71
2022/04/07 13:43:32;;;;;;;;;;;18.90;59.50;;;;;;4985581;28;19933;-71
2022/04/07 13:45:59;;;;;;;;;;;19.00;59.90;;;;;;4989921;28;20045;-72
2022/04/07 13:48:29;;;;;;;;;;;18.90;59.80;;;;;;4984091;28;20650;-72
2022/04/07 13:50:55;;;;;;;;;;;19.00;57.70;;;;;;4988415;28;19932;-72
2022/04/07 13:53:23;;;;;;;;;;;19.10;59.60;;;;;;4979346;28;19940;-71
2022/04/07 13:55:50;;;;;;;;;;;19.10;60.10;;;;;;4987612;28;19956;-71
2022/04/07 13:58:17;;;;;;;;;;;19.20;59.50;;;;;;4996938;28;19955;-72
2022/04/07 14:00:44;;;;;;;;;;;19.20;59.30;;;;;;4991847;28;19933;-73
2022/04/07 14:03:12;;;;;;;;;;;19.20;58.60;;;;;;4999730;28;19945;-72
2022/04/07 14:05:39;;;;;;;;;;;19.20;58.20;;;;;;5008169;28;19933;-71
2022/04/07 14:08:08;;;;;;;;;;;19.20;60.50;;;;;;4992998;28;19933;-72
2022/04/07 14:10:35;;;;;;;;;;;19.30;58.30;;;;;;4993812;28;19933;-72
2022/04/07 14:13:02;;;;;;;;;;;19.10;55.90;;;;;;4976623;28;19933;-71
2022/04/07 14:15:31;;;;;;;;;;;19.00;56.50;;;;;;4993433;28;22450;-73
2022/04/07 14:17:58;;;;;;;;;;;19.00;56.80;;;;;;4994753;28;22262;-71
2022/04/07 14:20:25;;;;;;;;;;;19.00;56.50;;;;;;4993950;28;20034;-72
2022/04/07 14:22:52;;;;;;;;;;;19.00;58.00;;;;;;5001310;28;19933;-72
2022/04/07 14:25:19;;;;;;;;;;;19.00;58.60;;;;;;4993806;28;20580;-72
2022/04/07 14:27:46;;;;;;;;;;;19.20;59.20;;;;;;4992723;28;20568;-72